createdAt,value
2022-10-22T00:01:24.813Z,14.47
2022-10-22T00:03:53.914Z,15.33
2022-10-22T00:06:22.035Z,13.13
2022-10-22T00:08:51.221Z,13.47
2022-10-22T00:11:21.344Z,15.23
2022-10-22T00:13:51.707Z,15.83
2022-10-22T00:16:19.776Z,14.73
2022-10-22T00:18:47.883Z,15.13
2022-10-22T00:21:16.355Z,14.13
2022-10-22T00:23:45.121Z,17.80
2022-10-22T00:26:13.584Z,21.10
2022-10-22T00:28:41.850Z,21.10
2022-10-22T00:31:12.168Z,24.40
2022-10-22T00:33:40.237Z,19.70
2022-10-22T00:36:09.102Z,20.10
2022-10-22T00:38:37.703Z,23.00
2022-10-22T00:41:06.086Z,17.03
2022-10-22T00:43:37.742Z,19.93
2022-10-22T00:46:08.599Z,22.37
2022-10-22T00:48:38.789Z,23.40
2022-10-22T00:51:09.622Z,20.03
2022-10-22T00:53:43.823Z,17.63
2022-10-22T00:56:12.489Z,24.53
2022-10-22T00:58:45.772Z,16.10
2022-10-22T01:01:18.021Z,21.43
2022-10-22T01:03:47.687Z,21.67
2022-10-22T01:06:21.822Z,20.03
2022-10-22T01:08:59.564Z,24.60
2022-10-22T01:11:33.783Z,21.00
2022-10-22T01:14:08.789Z,21.93
2022-10-22T01:16:44.253Z,22.30
2022-10-22T01:19:30.552Z,19.33
2022-10-22T01:22:06.100Z,19.93
2022-10-22T01:24:43.219Z,17.73
2022-10-22T01:27:23.522Z,14.37
2022-10-22T01:29:59.071Z,16.57
2022-10-22T01:32:33.020Z,11.63
2022-10-22T01:35:04.769Z,16.13
2022-10-22T01:37:39.809Z,14.53
2022-10-22T01:40:10.709Z,12.00
2022-10-22T01:42:39.101Z,11.77
2022-10-22T01:45:15.141Z,11.20
2022-10-22T01:47:56.582Z,17.20
2022-10-22T01:50:38.410Z,19.57
2022-10-22T01:53:22.722Z,18.87
2022-10-22T01:56:04.151Z,15.33
2022-10-22T01:58:40.622Z,17.73
2022-10-22T02:01:19.208Z,23.17
2022-10-22T02:03:53.916Z,22.97
2022-10-22T02:06:26.843Z,24.93
2022-10-22T02:08:57.708Z,28.27
2022-10-22T02:11:28.084Z,28.77
2022-10-22T02:14:00.017Z,25.20
2022-10-22T02:16:35.883Z,28.13
2022-10-22T02:19:11.903Z,27.47
2022-10-22T02:21:40.366Z,37.00
2022-10-22T02:24:09.737Z,26.40
2022-10-22T02:26:44.261Z,32.17
2022-10-22T02:29:17.359Z,30.63
2022-10-22T02:31:50.295Z,31.47
2022-10-22T02:34:23.359Z,30.53
2022-10-22T02:36:53.019Z,34.40
2022-10-22T02:39:23.154Z,26.43
2022-10-22T02:41:51.655Z,29.93
2022-10-22T02:44:22.890Z,30.37
2022-10-22T02:46:53.212Z,26.93
2022-10-22T02:49:21.317Z,33.67
2022-10-22T02:51:49.866Z,28.90
2022-10-22T02:54:18.143Z,24.87
2022-10-22T02:56:46.611Z,28.63
2022-10-22T02:59:14.743Z,23.50
2022-10-22T03:01:43.878Z,27.27
2022-10-22T03:04:13.560Z,26.13
2022-10-22T03:06:44.303Z,26.77
2022-10-22T03:09:14.368Z,25.50
2022-10-22T03:11:42.579Z,20.03
2022-10-22T03:14:11.071Z,18.27
2022-10-22T03:16:39.660Z,20.10
2022-10-22T03:19:08.189Z,17.73
2022-10-22T03:21:45.559Z,20.73
2022-10-22T03:24:20.036Z,17.33
2022-10-22T03:26:52.032Z,17.17
2022-10-22T03:29:23.915Z,15.43
2022-10-22T03:31:52.239Z,14.53
2022-10-22T03:34:20.655Z,12.83
2022-10-22T03:36:51.226Z,15.67
2022-10-22T03:39:21.307Z,13.67
2022-10-22T03:41:50.978Z,14.67
2022-10-22T03:44:20.078Z,14.23
2022-10-22T03:46:48.310Z,16.17
2022-10-22T03:49:16.435Z,15.33
2022-10-22T03:51:45.882Z,14.23
2022-10-22T03:54:18.168Z,14.80
2022-10-22T03:56:46.659Z,18.73
2022-10-22T03:59:15.719Z,24.53
2022-10-22T04:01:44.547Z,19.43
2022-10-22T04:04:13.600Z,21.63
2022-10-22T04:06:41.857Z,21.73
2022-10-22T04:09:11.315Z,21.47
2022-10-22T04:11:42.187Z,21.27
2022-10-22T04:14:12.000Z,20.03
2022-10-22T04:16:41.579Z,22.77
2022-10-22T04:19:10.535Z,21.60
2022-10-22T04:21:38.908Z,15.33
2022-10-22T04:24:07.545Z,11.97
2022-10-22T04:26:35.821Z,16.53
2022-10-22T04:29:05.346Z,17.67
2022-10-22T04:31:33.606Z,19.10
2022-10-22T04:34:02.660Z,29.93
2022-10-22T04:36:31.463Z,26.90
2022-10-22T04:39:01.685Z,28.40
2022-10-22T04:41:32.772Z,28.30
2022-10-22T04:44:05.203Z,28.60
2022-10-22T04:46:36.493Z,29.60
2022-10-22T04:49:05.427Z,31.43
2022-10-22T04:51:34.059Z,28.87
2022-10-22T04:54:02.889Z,32.93
2022-10-22T04:56:33.065Z,34.33
2022-10-22T04:59:03.697Z,33.87
2022-10-22T05:01:39.933Z,30.80
2022-10-22T05:04:13.900Z,31.03
2022-10-22T05:06:42.326Z,33.13
2022-10-22T05:09:14.649Z,28.10
2022-10-22T05:11:47.975Z,27.03
2022-10-22T05:14:20.517Z,31.57
2022-10-22T05:16:50.563Z,28.70
2022-10-22T05:19:20.709Z,26.60
2022-10-22T05:21:48.766Z,25.30
2022-10-22T05:24:18.112Z,38.27
2022-10-22T05:26:47.775Z,27.17
2022-10-22T05:29:16.540Z,33.30
2022-10-22T05:31:45.846Z,35.37
2022-10-22T05:34:15.852Z,35.10
2022-10-22T05:36:45.054Z,31.50
2022-10-22T05:39:16.695Z,35.10
2022-10-22T05:41:45.798Z,28.50
2022-10-22T05:44:14.667Z,34.10
2022-10-22T05:46:44.674Z,34.13
2022-10-22T05:49:16.541Z,31.93
2022-10-22T05:51:44.663Z,40.63
2022-10-22T05:54:20.298Z,31.03
2022-10-22T05:56:48.361Z,27.87
2022-10-22T05:59:16.645Z,47.70
2022-10-22T06:01:44.806Z,37.23
2022-10-22T06:04:16.386Z,35.53
2022-10-22T06:06:47.978Z,36.67
2022-10-22T06:09:19.400Z,35.60
2022-10-22T06:11:48.213Z,42.00
2022-10-22T06:14:16.952Z,38.57
2022-10-22T06:16:45.413Z,39.97
2022-10-22T06:19:15.285Z,35.60
2022-10-22T06:21:44.024Z,37.90
2022-10-22T06:24:14.613Z,34.97
2022-10-22T06:26:45.345Z,32.07
2022-10-22T06:29:16.413Z,29.60
2022-10-22T06:31:44.568Z,37.60
2022-10-22T06:34:15.221Z,33.87
2022-10-22T06:36:45.324Z,31.20
2022-10-22T06:39:17.008Z,34.50
2022-10-22T06:41:46.461Z,34.93
2022-10-22T06:44:16.767Z,29.23
2022-10-22T06:46:45.007Z,33.10
2022-10-22T06:49:16.506Z,29.53
2022-10-22T06:51:44.659Z,31.20
2022-10-22T06:54:15.071Z,32.03
2022-10-22T06:56:43.378Z,26.60
2022-10-22T06:59:12.391Z,28.23
2022-10-22T07:01:41.093Z,36.43
2022-10-22T07:04:11.548Z,35.43
2022-10-22T07:06:39.668Z,33.20
2022-10-22T07:09:08.533Z,29.60
2022-10-22T07:11:41.971Z,30.93
2022-10-22T07:14:10.480Z,29.10
2022-10-22T07:16:38.963Z,27.30
2022-10-22T07:19:07.288Z,28.23
2022-10-22T07:21:35.532Z,31.53
2022-10-22T07:24:03.905Z,33.57
2022-10-22T07:26:32.921Z,40.50
2022-10-22T07:29:03.367Z,36.93
2022-10-22T07:31:32.027Z,35.33
2022-10-22T07:34:01.029Z,40.40
2022-10-22T07:36:30.692Z,30.07
2022-10-22T07:39:00.635Z,25.60
2022-10-22T07:41:30.508Z,23.03
2022-10-22T07:43:59.259Z,32.13
2022-10-22T07:46:29.128Z,28.13
2022-10-22T07:48:57.676Z,26.40
2022-10-22T07:51:28.223Z,26.20
2022-10-22T07:53:56.500Z,24.37
2022-10-22T07:56:24.586Z,24.87
2022-10-22T07:58:52.704Z,36.10
2022-10-22T08:01:20.857Z,28.73
2022-10-22T08:03:50.862Z,27.67
2022-10-22T08:06:19.092Z,26.77
2022-10-22T08:08:48.227Z,25.33
2022-10-22T08:11:17.435Z,23.30
2022-10-22T08:13:45.984Z,28.70
2022-10-22T08:16:14.682Z,23.60
2022-10-22T08:18:44.183Z,21.93
2022-10-22T08:21:17.963Z,25.87
2022-10-22T08:23:46.260Z,24.20
2022-10-22T08:26:14.571Z,35.67
2022-10-22T08:28:42.597Z,23.20
2022-10-22T08:31:12.619Z,24.90
2022-10-22T08:33:41.111Z,23.17
2022-10-22T08:36:09.786Z,22.90
2022-10-22T08:38:39.512Z,25.60
2022-10-22T08:41:11.695Z,26.70
2022-10-22T08:44:14.825Z,21.27
2022-10-22T08:47:13.259Z,24.17
2022-10-22T08:49:43.677Z,19.17
2022-10-22T08:52:14.857Z,17.70
2022-10-22T08:54:52.001Z,20.43
2022-10-22T08:57:42.454Z,22.60
2022-10-22T09:00:15.167Z,20.00
2022-10-22T09:02:54.232Z,20.07
2022-10-22T09:05:35.612Z,16.87
2022-10-22T09:08:06.405Z,22.80
2022-10-22T09:10:42.004Z,15.27
2022-10-22T09:13:11.480Z,17.53
2022-10-22T09:15:43.720Z,18.50
2022-10-22T09:18:30.058Z,20.70
2022-10-22T09:21:03.115Z,17.60
2022-10-22T09:23:39.117Z,19.63
2022-10-22T09:26:16.056Z,14.37
2022-10-22T09:28:45.637Z,13.07
2022-10-22T09:31:15.816Z,16.40
2022-10-22T09:33:46.036Z,17.30
2022-10-22T09:36:18.400Z,16.37
2022-10-22T09:38:49.014Z,20.63
2022-10-22T09:41:19.681Z,18.10
2022-10-22T09:43:48.645Z,15.60
2022-10-22T09:46:23.248Z,20.20
2022-10-22T09:48:59.829Z,18.67
2022-10-22T09:51:38.760Z,19.87
2022-10-22T09:54:21.671Z,18.73
2022-10-22T09:56:58.088Z,17.47
2022-10-22T09:59:31.703Z,18.33
2022-10-22T10:02:20.218Z,19.07
2022-10-22T10:05:04.425Z,17.97
2022-10-22T10:07:35.130Z,17.90
2022-10-22T10:10:04.440Z,16.20
2022-10-22T10:12:43.827Z,17.57
2022-10-22T10:15:26.590Z,21.00
2022-10-22T10:18:08.410Z,16.33
2022-10-22T10:20:42.718Z,16.63
2022-10-22T10:23:23.113Z,13.50
2022-10-22T10:25:59.562Z,17.60
2022-10-22T10:28:42.017Z,14.70
2022-10-22T10:31:20.916Z,19.03
2022-10-22T10:33:58.211Z,16.07
2022-10-22T10:36:35.684Z,13.53
2022-10-22T10:39:10.245Z,14.73
2022-10-22T10:41:51.278Z,19.13
2022-10-22T10:44:39.536Z,17.20
2022-10-22T10:47:21.435Z,15.60
2022-10-22T10:49:52.391Z,16.57
2022-10-22T10:52:32.005Z,18.97
2022-10-22T10:55:15.241Z,20.00
2022-10-22T10:57:55.586Z,15.57
2022-10-22T11:00:25.527Z,21.67
2022-10-22T11:03:17.727Z,18.23
2022-10-22T11:05:51.682Z,17.53
2022-10-22T11:08:26.465Z,17.17
2022-10-22T11:11:01.162Z,15.23
2022-10-22T11:13:33.520Z,17.90
2022-10-22T11:16:08.137Z,17.13
2022-10-22T11:18:40.995Z,18.30
2022-10-22T11:21:20.350Z,16.83
2022-10-22T11:23:54.890Z,15.30
2022-10-22T11:26:38.612Z,15.27
2022-10-22T11:29:13.881Z,12.90
2022-10-22T11:31:45.564Z,13.03
2022-10-22T11:34:35.049Z,11.83
2022-10-22T11:37:06.712Z,11.17
2022-10-22T11:39:42.900Z,11.50
2022-10-22T11:42:13.694Z,10.50
2022-10-22T11:47:27.661Z,12.80
2022-10-22T11:50:02.488Z,13.13
2022-10-22T11:52:42.344Z,14.43
2022-10-22T11:55:36.243Z,11.20
2022-10-22T11:58:35.209Z,15.93
2022-10-22T12:01:27.179Z,12.63
2022-10-22T12:04:18.693Z,10.93
2022-10-22T12:07:05.285Z,12.07
2022-10-22T12:09:42.318Z,13.00
2022-10-22T12:12:16.885Z,27.70
2022-10-22T12:14:56.456Z,10.97
2022-10-22T12:17:26.939Z,12.50
2022-10-22T12:20:02.978Z,11.77
2022-10-22T12:22:33.507Z,13.43
2022-10-22T12:25:03.540Z,10.63
2022-10-22T12:27:37.629Z,10.80
2022-10-22T12:30:19.814Z,13.00
2022-10-22T12:32:48.519Z,11.43
2022-10-22T12:35:20.738Z,10.30
2022-10-22T12:37:53.487Z,8.73
2022-10-22T12:40:25.951Z,9.80
2022-10-22T12:42:56.683Z,9.73
2022-10-22T12:45:28.894Z,13.20
2022-10-22T12:47:59.778Z,10.73
2022-10-22T12:50:34.284Z,9.37
2022-10-22T12:53:03.663Z,11.03
2022-10-22T12:55:33.444Z,10.17
2022-10-22T12:58:06.139Z,10.83
2022-10-22T13:00:36.275Z,16.67
2022-10-22T13:03:08.374Z,12.13
2022-10-22T13:05:40.057Z,16.67
2022-10-22T13:08:11.689Z,12.03
2022-10-22T13:10:42.145Z,11.13
2022-10-22T13:13:34.875Z,10.80
2022-10-22T13:16:21.335Z,10.67
2022-10-22T13:18:50.170Z,11.37
2022-10-22T13:21:29.620Z,14.30
2022-10-22T13:24:00.141Z,10.40
2022-10-22T13:26:34.935Z,10.33
2022-10-22T13:29:10.504Z,10.13
2022-10-22T13:31:46.197Z,11.83
2022-10-22T13:34:18.464Z,10.97
2022-10-22T13:36:48.205Z,11.63
2022-10-22T13:39:19.361Z,9.40
2022-10-22T13:41:50.292Z,10.60
2022-10-22T13:44:18.642Z,12.57
2022-10-22T13:46:47.648Z,9.67
2022-10-22T13:49:17.756Z,11.70
2022-10-22T13:51:47.680Z,12.67
2022-10-22T13:54:18.376Z,9.73
2022-10-22T13:56:46.426Z,10.73
2022-10-22T13:59:16.256Z,11.53
2022-10-22T14:01:46.898Z,14.13
2022-10-22T14:04:15.883Z,15.67
2022-10-22T14:06:44.008Z,16.10
2022-10-22T14:09:18.266Z,14.47
2022-10-22T14:11:46.307Z,12.33
2022-10-22T14:14:17.384Z,12.77
2022-10-22T14:16:45.518Z,17.37
2022-10-22T14:19:17.828Z,10.43
2022-10-22T14:21:45.920Z,11.70
2022-10-22T14:24:15.207Z,13.23
2022-10-22T14:26:43.432Z,15.47
2022-10-22T14:29:12.083Z,12.83
2022-10-22T14:34:16.109Z,13.07
2022-10-22T14:36:44.758Z,12.20
2022-10-22T14:39:13.519Z,13.23
2022-10-22T14:41:43.779Z,9.97
2022-10-22T14:44:14.307Z,10.63
2022-10-22T14:46:44.218Z,12.57
2022-10-22T14:49:12.556Z,14.83
2022-10-22T14:51:40.433Z,15.00
2022-10-22T14:54:08.508Z,12.70
2022-10-22T14:59:11.764Z,13.73
2022-10-22T15:01:42.163Z,10.33
2022-10-22T15:04:10.167Z,12.03
2022-10-22T15:06:39.508Z,13.83
2022-10-22T15:09:07.434Z,10.87
2022-10-22T15:11:35.439Z,11.47
2022-10-22T15:14:03.515Z,12.83
2022-10-22T15:16:32.937Z,11.57
2022-10-22T15:19:01.090Z,11.47
2022-10-22T15:21:29.123Z,16.03
2022-10-22T15:23:57.047Z,12.60
2022-10-22T15:26:26.352Z,13.07
2022-10-22T15:28:54.836Z,13.60
2022-10-22T15:31:44.648Z,11.67
2022-10-22T15:34:12.669Z,16.53
2022-10-22T15:36:40.826Z,16.90
2022-10-22T15:39:10.769Z,13.93
2022-10-22T15:41:38.782Z,14.57
2022-10-22T15:44:07.152Z,14.10
2022-10-22T15:46:35.627Z,17.23
2022-10-22T15:49:05.170Z,23.77
2022-10-22T15:51:33.142Z,20.57
2022-10-22T15:54:01.311Z,17.17
2022-10-22T15:56:30.757Z,19.37
2022-10-22T15:59:00.668Z,19.60
2022-10-22T16:01:28.900Z,20.33
2022-10-22T16:04:02.693Z,22.33
2022-10-22T16:06:33.947Z,22.80
2022-10-22T16:09:03.668Z,25.27
2022-10-22T16:11:31.845Z,21.40
2022-10-22T16:14:01.110Z,20.37
2022-10-22T16:16:30.997Z,24.67
2022-10-22T16:18:58.998Z,25.00
2022-10-22T16:21:27.778Z,23.10
2022-10-22T16:23:57.228Z,25.53
2022-10-22T16:26:25.145Z,20.27
2022-10-22T16:28:53.673Z,25.30
2022-10-22T16:31:21.716Z,26.10
2022-10-22T16:33:50.406Z,24.97
2022-10-22T16:36:20.227Z,24.60
2022-10-22T16:38:49.179Z,21.20
2022-10-22T16:41:20.482Z,19.73
2022-10-22T16:43:50.101Z,26.90
2022-10-22T16:46:19.494Z,21.87
2022-10-22T16:48:48.091Z,24.37
2022-10-22T16:51:18.223Z,22.70
2022-10-22T16:53:46.713Z,19.83
2022-10-22T16:56:16.450Z,29.97
2022-10-22T16:58:47.950Z,21.07
2022-10-22T17:01:18.152Z,19.17
2022-10-22T17:03:46.531Z,16.83
2022-10-22T17:06:14.975Z,16.90
2022-10-22T17:08:43.742Z,14.07
2022-10-22T17:11:13.274Z,15.80
2022-10-22T17:13:42.535Z,16.00
2022-10-22T17:16:14.127Z,15.87
2022-10-22T17:18:43.488Z,13.23
2022-10-22T17:21:12.413Z,15.43
2022-10-22T17:23:40.645Z,17.63
2022-10-22T17:26:10.468Z,19.33
2022-10-22T17:28:39.652Z,16.97
2022-10-22T17:31:11.699Z,16.77
2022-10-22T17:33:41.087Z,14.10
2022-10-22T17:36:11.975Z,30.27
2022-10-22T17:38:40.620Z,28.60
2022-10-22T17:41:13.816Z,22.73
2022-10-22T17:43:42.623Z,16.77
2022-10-22T17:46:12.285Z,18.77
2022-10-22T17:48:41.692Z,20.53
2022-10-22T17:51:10.568Z,20.10
2022-10-22T17:53:41.544Z,21.80
2022-10-22T17:56:11.347Z,24.13
2022-10-22T17:58:39.203Z,23.17
2022-10-22T18:01:07.685Z,22.43
2022-10-22T18:03:35.777Z,17.77
2022-10-22T18:06:10.123Z,22.23
2022-10-22T18:08:38.223Z,23.93
2022-10-22T18:11:10.697Z,20.83
2022-10-22T18:13:41.216Z,21.87
2022-10-22T18:16:09.475Z,20.83
2022-10-22T18:18:37.714Z,20.93
2022-10-22T18:21:06.330Z,21.57
2022-10-22T18:23:35.604Z,22.57
2022-10-22T18:26:05.593Z,18.97
2022-10-22T18:28:33.931Z,19.03
2022-10-22T18:31:06.479Z,18.07
2022-10-22T18:33:34.545Z,22.83
2022-10-22T18:36:05.538Z,17.97
2022-10-22T18:38:33.776Z,21.67
2022-10-22T18:41:03.094Z,19.93
2022-10-22T18:43:30.992Z,21.37
2022-10-22T18:45:58.895Z,17.50
2022-10-22T18:48:26.850Z,19.13
2022-10-22T18:51:01.212Z,21.17
2022-10-22T18:53:29.882Z,16.67
2022-10-22T18:55:57.785Z,18.67
2022-10-22T18:58:27.074Z,20.13
2022-10-22T19:00:55.093Z,18.30
2022-10-22T19:03:22.998Z,24.00
2022-10-22T19:05:54.263Z,17.77
2022-10-22T19:08:23.466Z,20.00
2022-10-22T19:10:51.364Z,23.17
2022-10-22T19:13:21.194Z,19.43
2022-10-22T19:15:50.728Z,22.83
2022-10-22T19:18:18.600Z,23.40
2022-10-22T19:20:47.839Z,22.00
2022-10-22T19:23:19.972Z,25.27
2022-10-22T19:25:48.947Z,21.23
2022-10-22T19:28:17.217Z,20.90
2022-10-22T19:30:45.312Z,21.50
2022-10-22T19:33:14.549Z,21.47
2022-10-22T19:35:42.600Z,20.13
2022-10-22T19:38:10.537Z,22.17
2022-10-22T19:40:38.460Z,23.23
2022-10-22T19:43:06.426Z,21.37
2022-10-22T19:45:34.428Z,26.30
2022-10-22T19:48:02.329Z,22.60
2022-10-22T19:50:31.737Z,20.23
2022-10-22T19:53:01.531Z,19.67
2022-10-22T19:55:29.413Z,18.77
2022-10-22T19:57:57.916Z,18.70
2022-10-22T20:00:25.802Z,21.30
2022-10-22T20:02:53.770Z,18.93
2022-10-22T20:07:58.501Z,21.47
2022-10-22T20:10:26.757Z,21.20
2022-10-22T20:12:54.742Z,22.27
2022-10-22T20:15:22.748Z,22.30
2022-10-22T20:17:50.718Z,17.63
2022-10-22T20:20:20.944Z,18.57
2022-10-22T20:22:49.880Z,17.63
2022-10-22T20:25:19.723Z,17.10
2022-10-22T20:27:47.695Z,17.60
2022-10-22T20:32:49.484Z,25.87
2022-10-22T20:35:17.592Z,24.23
2022-10-22T20:37:45.583Z,21.67
2022-10-22T20:40:14.483Z,24.47
2022-10-22T20:42:44.258Z,22.70
2022-10-22T20:45:12.450Z,20.30
2022-10-22T20:47:51.308Z,22.70
2022-10-22T20:50:21.371Z,21.90
2022-10-22T20:52:50.127Z,30.87
2022-10-22T20:55:18.180Z,31.20
2022-10-22T20:57:47.745Z,29.87
2022-10-22T21:00:16.223Z,24.30
2022-10-22T21:02:44.203Z,26.93
2022-10-22T21:05:12.146Z,29.70
2022-10-22T21:07:40.298Z,23.60
2022-10-22T21:10:09.306Z,30.40
2022-10-22T21:12:41.827Z,22.97
2022-10-22T21:15:12.753Z,30.33
2022-10-22T21:17:40.866Z,27.10
2022-10-22T21:22:42.689Z,25.67
2022-10-22T21:25:11.124Z,25.20
2022-10-22T21:27:39.158Z,26.77
2022-10-22T21:30:08.831Z,26.73
2022-10-22T21:32:38.217Z,29.87
2022-10-22T21:35:06.925Z,25.00
2022-10-22T21:37:35.226Z,25.87
2022-10-22T21:40:03.987Z,21.40
2022-10-22T21:42:32.048Z,26.57
2022-10-22T21:45:00.063Z,26.10
2022-10-22T21:47:28.269Z,28.13
2022-10-22T21:49:57.497Z,25.03
2022-10-22T21:52:25.497Z,23.40
2022-10-22T21:54:53.468Z,25.13
2022-10-22T21:57:21.343Z,25.77
2022-10-22T21:59:49.207Z,24.73
2022-10-22T22:02:17.190Z,27.70
2022-10-22T22:04:45.442Z,23.77
2022-10-22T22:07:14.670Z,27.63
2022-10-22T22:09:42.638Z,23.80
2022-10-22T22:12:10.539Z,28.33
2022-10-22T22:14:38.516Z,28.57
2022-10-22T22:17:06.506Z,25.57
2022-10-22T22:19:34.519Z,25.63
2022-10-22T22:22:02.568Z,27.60
2022-10-22T22:24:31.933Z,28.00
2022-10-22T22:26:59.846Z,23.30
2022-10-22T22:29:28.925Z,28.33
2022-10-22T22:31:57.310Z,25.73
2022-10-22T22:34:25.326Z,24.13
2022-10-22T22:36:53.229Z,26.50
2022-10-22T22:39:23.798Z,20.43
2022-10-22T22:41:53.200Z,22.03
2022-10-22T22:44:21.113Z,20.67
2022-10-22T22:46:49.046Z,16.27
2022-10-22T22:49:17.629Z,16.80
2022-10-22T22:51:45.687Z,24.13
2022-10-22T22:54:13.593Z,20.33
2022-10-22T22:56:41.604Z,21.00
2022-10-22T22:59:12.308Z,23.93
2022-10-22T23:01:40.828Z,22.10
2022-10-22T23:04:12.371Z,23.80
2022-10-22T23:06:41.131Z,28.20
2022-10-22T23:09:11.690Z,22.53
2022-10-22T23:11:40.597Z,24.67
2022-10-22T23:14:12.164Z,24.27
2022-10-22T23:16:42.851Z,25.03
2022-10-22T23:19:11.472Z,22.33
2022-10-22T23:21:41.275Z,22.70
2022-10-22T23:24:12.305Z,23.37
2022-10-22T23:26:42.385Z,27.40
2022-10-22T23:29:14.130Z,25.53
2022-10-22T23:31:43.212Z,24.07
2022-10-22T23:34:12.869Z,23.87
2022-10-22T23:36:41.098Z,20.00
2022-10-22T23:39:11.189Z,24.27
2022-10-22T23:41:39.761Z,24.73
2022-10-22T23:44:08.737Z,23.67
2022-10-22T23:46:39.598Z,21.10
2022-10-22T23:49:08.210Z,25.77
2022-10-22T23:51:36.682Z,20.27
2022-10-22T23:54:06.848Z,26.30
2022-10-22T23:56:37.075Z,23.37
2022-10-22T23:59:05.898Z,24.00
